sensor_id;sensor_type;location;lat;lon;timestamp;temperature;humidity
48575;DHT22;34352;51.084;3.712;2023-07-24T00:01:54;18.50;90.20
48575;DHT22;34352;51.084;3.712;2023-07-24T00:04:19;18.40;90.70
48575;DHT22;34352;51.084;3.712;2023-07-24T00:06:55;18.50;90.60
48575;DHT22;34352;51.084;3.712;2023-07-24T00:09:20;18.50;90.10
48575;DHT22;34352;51.084;3.712;2023-07-24T00:11:47;18.40;90.40
48575;DHT22;34352;51.084;3.712;2023-07-24T00:14:17;18.40;90.10
48575;DHT22;34352;51.084;3.712;2023-07-24T00:16:43;18.40;90.50
48575;DHT22;34352;51.084;3.712;2023-07-24T00:19:08;18.40;90.50
48575;DHT22;34352;51.084;3.712;2023-07-24T00:21:34;18.40;90.60
48575;DHT22;34352;51.084;3.712;2023-07-24T00:24:00;18.40;90.20
48575;DHT22;34352;51.084;3.712;2023-07-24T00:26:27;18.40;90.30
48575;DHT22;34352;51.084;3.712;2023-07-24T00:28:54;18.30;90.50
48575;DHT22;34352;51.084;3.712;2023-07-24T00:31:20;18.20;90.50
48575;DHT22;34352;51.084;3.712;2023-07-24T00:33:53;18.30;90.70
48575;DHT22;34352;51.084;3.712;2023-07-24T00:36:19;18.40;90.30
48575;DHT22;34352;51.084;3.712;2023-07-24T00:38:46;18.30;89.80
48575;DHT22;34352;51.084;3.712;2023-07-24T00:41:12;18.30;90.10
48575;DHT22;34352;51.084;3.712;2023-07-24T00:43:38;18.20;90.00
48575;DHT22;34352;51.084;3.712;2023-07-24T00:46:04;18.20;90.00
48575;DHT22;34352;51.084;3.712;2023-07-24T00:48:29;18.20;89.30
48575;DHT22;34352;51.084;3.712;2023-07-24T00:50:56;18.10;90.30
48575;DHT22;34352;51.084;3.712;2023-07-24T00:53:23;18.10;90.50
48575;DHT22;34352;51.084;3.712;2023-07-24T00:55:49;18.10;90.40
48575;DHT22;34352;51.084;3.712;2023-07-24T00:58:16;18.00;90.50
48575;DHT22;34352;51.084;3.712;2023-07-24T01:00:45;18.10;90.60
48575;DHT22;34352;51.084;3.712;2023-07-24T01:03:12;18.20;89.30
48575;DHT22;34352;51.084;3.712;2023-07-24T01:05:39;18.30;88.50
48575;DHT22;34352;51.084;3.712;2023-07-24T01:08:05;18.30;88.00
48575;DHT22;34352;51.084;3.712;2023-07-24T01:10:31;18.20;88.70
48575;DHT22;34352;51.084;3.712;2023-07-24T01:15:31;18.10;88.70
48575;DHT22;34352;51.084;3.712;2023-07-24T01:18:09;18.00;90.10
48575;DHT22;34352;51.084;3.712;2023-07-24T01:20:38;18.00;90.30
48575;DHT22;34352;51.084;3.712;2023-07-24T01:25:58;17.90;90.80
48575;DHT22;34352;51.084;3.712;2023-07-24T01:28:27;18.00;90.50
48575;DHT22;34352;51.084;3.712;2023-07-24T01:30:54;18.00;90.00
48575;DHT22;34352;51.084;3.712;2023-07-24T01:33:20;17.90;89.90
48575;DHT22;34352;51.084;3.712;2023-07-24T01:35:49;18.00;90.20
48575;DHT22;34352;51.084;3.712;2023-07-24T01:38:16;17.90;89.70
48575;DHT22;34352;51.084;3.712;2023-07-24T01:40:43;17.90;89.20
48575;DHT22;34352;51.084;3.712;2023-07-24T01:43:09;17.90;88.20
48575;DHT22;34352;51.084;3.712;2023-07-24T01:45:35;17.90;88.80
48575;DHT22;34352;51.084;3.712;2023-07-24T01:48:04;17.80;89.30
48575;DHT22;34352;51.084;3.712;2023-07-24T01:50:30;17.80;89.60
48575;DHT22;34352;51.084;3.712;2023-07-24T01:52:56;17.80;88.10
48575;DHT22;34352;51.084;3.712;2023-07-24T01:55:23;17.70;88.60
48575;DHT22;34352;51.084;3.712;2023-07-24T01:57:54;17.80;87.90
48575;DHT22;34352;51.084;3.712;2023-07-24T02:00:21;17.90;86.00
48575;DHT22;34352;51.084;3.712;2023-07-24T02:02:47;17.90;86.00
48575;DHT22;34352;51.084;3.712;2023-07-24T02:05:14;17.80;87.00
48575;DHT22;34352;51.084;3.712;2023-07-24T02:07:40;17.80;86.50
48575;DHT22;34352;51.084;3.712;2023-07-24T02:10:06;17.80;86.10
48575;DHT22;34352;51.084;3.712;2023-07-24T02:12:32;17.70;84.80
48575;DHT22;34352;51.084;3.712;2023-07-24T02:14:58;17.70;85.30
48575;DHT22;34352;51.084;3.712;2023-07-24T02:17:25;17.60;86.00
48575;DHT22;34352;51.084;3.712;2023-07-24T02:19:50;17.60;87.70
48575;DHT22;34352;51.084;3.712;2023-07-24T02:22:16;17.70;86.40
48575;DHT22;34352;51.084;3.712;2023-07-24T02:24:42;17.70;85.20
48575;DHT22;34352;51.084;3.712;2023-07-24T02:27:07;17.70;84.50
48575;DHT22;34352;51.084;3.712;2023-07-24T02:29:34;17.60;85.50
48575;DHT22;34352;51.084;3.712;2023-07-24T02:32:02;17.70;86.30
48575;DHT22;34352;51.084;3.712;2023-07-24T02:34:28;17.70;85.30
48575;DHT22;34352;51.084;3.712;2023-07-24T02:36:53;17.70;84.90
48575;DHT22;34352;51.084;3.712;2023-07-24T02:39:20;17.60;85.60
48575;DHT22;34352;51.084;3.712;2023-07-24T02:41:46;17.40;85.90
48575;DHT22;34352;51.084;3.712;2023-07-24T02:44:13;17.30;86.90
48575;DHT22;34352;51.084;3.712;2023-07-24T02:46:40;17.20;87.90
48575;DHT22;34352;51.084;3.712;2023-07-24T02:49:06;17.10;87.80
48575;DHT22;34352;51.084;3.712;2023-07-24T02:51:32;17.10;87.70
48575;DHT22;34352;51.084;3.712;2023-07-24T02:53:58;17.00;87.90
48575;DHT22;34352;51.084;3.712;2023-07-24T02:56:23;16.80;89.20
48575;DHT22;34352;51.084;3.712;2023-07-24T02:58:49;16.90;89.20
48575;DHT22;34352;51.084;3.712;2023-07-24T03:01:15;16.90;89.40
48575;DHT22;34352;51.084;3.712;2023-07-24T03:03:42;17.00;89.00
48575;DHT22;34352;51.084;3.712;2023-07-24T03:06:09;16.80;88.30
48575;DHT22;34352;51.084;3.712;2023-07-24T03:08:35;16.70;89.10
48575;DHT22;34352;51.084;3.712;2023-07-24T03:11:05;16.70;89.50
48575;DHT22;34352;51.084;3.712;2023-07-24T03:13:31;16.70;90.10
48575;DHT22;34352;51.084;3.712;2023-07-24T03:15:58;16.70;89.30
48575;DHT22;34352;51.084;3.712;2023-07-24T03:18:24;16.60;89.50
48575;DHT22;34352;51.084;3.712;2023-07-24T03:20:50;16.60;89.40
48575;DHT22;34352;51.084;3.712;2023-07-24T03:23:16;16.70;88.20
48575;DHT22;34352;51.084;3.712;2023-07-24T03:25:43;16.80;87.10
48575;DHT22;34352;51.084;3.712;2023-07-24T03:28:09;16.70;87.90
48575;DHT22;34352;51.084;3.712;2023-07-24T03:30:35;16.60;88.60
48575;DHT22;34352;51.084;3.712;2023-07-24T03:33:01;16.70;89.00
48575;DHT22;34352;51.084;3.712;2023-07-24T03:35:28;16.80;89.20
48575;DHT22;34352;51.084;3.712;2023-07-24T03:37:55;16.80;89.10
48575;DHT22;34352;51.084;3.712;2023-07-24T03:40:20;16.80;88.80
48575;DHT22;34352;51.084;3.712;2023-07-24T03:42:46;17.00;87.70
48575;DHT22;34352;51.084;3.712;2023-07-24T03:45:11;16.90;87.90
48575;DHT22;34352;51.084;3.712;2023-07-24T03:47:38;17.00;88.10
48575;DHT22;34352;51.084;3.712;2023-07-24T03:50:04;17.00;87.10
48575;DHT22;34352;51.084;3.712;2023-07-24T03:52:32;16.90;88.00
48575;DHT22;34352;51.084;3.712;2023-07-24T03:54:58;16.90;87.80
48575;DHT22;34352;51.084;3.712;2023-07-24T03:57:25;16.90;88.20
48575;DHT22;34352;51.084;3.712;2023-07-24T03:59:52;17.00;88.90
48575;DHT22;34352;51.084;3.712;2023-07-24T04:02:19;16.90;88.60
48575;DHT22;34352;51.084;3.712;2023-07-24T04:04:44;16.90;87.40
48575;DHT22;34352;51.084;3.712;2023-07-24T04:07:10;17.00;87.40
48575;DHT22;34352;51.084;3.712;2023-07-24T04:09:36;16.80;87.40
48575;DHT22;34352;51.084;3.712;2023-07-24T04:12:03;16.80;88.60
48575;DHT22;34352;51.084;3.712;2023-07-24T04:14:29;16.80;88.40
48575;DHT22;34352;51.084;3.712;2023-07-24T04:16:55;16.80;88.50
48575;DHT22;34352;51.084;3.712;2023-07-24T04:19:22;16.80;88.10
48575;DHT22;34352;51.084;3.712;2023-07-24T04:21:49;16.90;88.50
48575;DHT22;34352;51.084;3.712;2023-07-24T04:24:15;16.90;87.90
48575;DHT22;34352;51.084;3.712;2023-07-24T04:26:42;16.90;88.00
48575;DHT22;34352;51.084;3.712;2023-07-24T04:29:07;16.80;88.90
48575;DHT22;34352;51.084;3.712;2023-07-24T04:31:33;16.80;89.10
48575;DHT22;34352;51.084;3.712;2023-07-24T04:34:00;16.80;89.00
48575;DHT22;34352;51.084;3.712;2023-07-24T04:36:37;16.90;89.30
48575;DHT22;34352;51.084;3.712;2023-07-24T04:39:03;17.00;87.90
48575;DHT22;34352;51.084;3.712;2023-07-24T04:41:30;18.10;87.80
48575;DHT22;34352;51.084;3.712;2023-07-24T04:43:56;17.00;87.40
48575;DHT22;34352;51.084;3.712;2023-07-24T04:46:22;16.90;88.50
48575;DHT22;34352;51.084;3.712;2023-07-24T04:48:48;16.90;89.50
48575;DHT22;34352;51.084;3.712;2023-07-24T04:51:14;16.90;89.80
48575;DHT22;34352;51.084;3.712;2023-07-24T04:53:39;16.90;89.70
48575;DHT22;34352;51.084;3.712;2023-07-24T04:56:10;16.90;90.00
48575;DHT22;34352;51.084;3.712;2023-07-24T04:58:42;17.00;89.70
48575;DHT22;34352;51.084;3.712;2023-07-24T05:01:12;17.00;88.50
48575;DHT22;34352;51.084;3.712;2023-07-24T05:03:38;17.00;89.90
48575;DHT22;34352;51.084;3.712;2023-07-24T05:06:16;17.10;89.20
48575;DHT22;34352;51.084;3.712;2023-07-24T05:08:42;17.10;89.00
48575;DHT22;34352;51.084;3.712;2023-07-24T05:11:09;17.10;89.40
48575;DHT22;34352;51.084;3.712;2023-07-24T05:13:34;17.10;89.00
48575;DHT22;34352;51.084;3.712;2023-07-24T05:16:00;17.10;89.30
48575;DHT22;34352;51.084;3.712;2023-07-24T05:18:28;17.10;88.90
48575;DHT22;34352;51.084;3.712;2023-07-24T05:20:53;17.20;87.70
48575;DHT22;34352;51.084;3.712;2023-07-24T05:23:19;17.30;86.90
48575;DHT22;34352;51.084;3.712;2023-07-24T05:26:04;17.30;86.00
48575;DHT22;34352;51.084;3.712;2023-07-24T05:28:31;17.20;86.80
48575;DHT22;34352;51.084;3.712;2023-07-24T05:31:06;17.20;87.60
48575;DHT22;34352;51.084;3.712;2023-07-24T05:33:33;17.30;87.90
48575;DHT22;34352;51.084;3.712;2023-07-24T05:36:01;17.30;87.30
48575;DHT22;34352;51.084;3.712;2023-07-24T05:38:27;17.30;86.70
48575;DHT22;34352;51.084;3.712;2023-07-24T05:41:03;17.30;85.90
48575;DHT22;34352;51.084;3.712;2023-07-24T05:43:30;17.30;86.70
48575;DHT22;34352;51.084;3.712;2023-07-24T05:45:57;17.30;86.70
48575;DHT22;34352;51.084;3.712;2023-07-24T05:48:23;17.40;87.00
48575;DHT22;34352;51.084;3.712;2023-07-24T05:50:49;17.50;87.80
48575;DHT22;34352;51.084;3.712;2023-07-24T05:53:16;17.70;87.60
48575;DHT22;34352;51.084;3.712;2023-07-24T05:55:42;17.70;86.40
48575;DHT22;34352;51.084;3.712;2023-07-24T05:58:09;17.90;85.60
48575;DHT22;34352;51.084;3.712;2023-07-24T06:00:35;17.90;84.70
48575;DHT22;34352;51.084;3.712;2023-07-24T06:03:02;18.10;84.70
48575;DHT22;34352;51.084;3.712;2023-07-24T06:05:29;18.20;84.10
48575;DHT22;34352;51.084;3.712;2023-07-24T06:07:56;18.20;82.80
48575;DHT22;34352;51.084;3.712;2023-07-24T06:10:32;18.30;79.40
48575;DHT22;34352;51.084;3.712;2023-07-24T06:13:11;18.40;79.80
48575;DHT22;34352;51.084;3.712;2023-07-24T06:15:37;18.40;78.20
48575;DHT22;34352;51.084;3.712;2023-07-24T06:18:03;18.30;78.50
48575;DHT22;34352;51.084;3.712;2023-07-24T06:20:29;18.30;77.30
48575;DHT22;34352;51.084;3.712;2023-07-24T06:22:55;18.10;79.60
48575;DHT22;34352;51.084;3.712;2023-07-24T06:25:22;18.00;82.10
48575;DHT22;34352;51.084;3.712;2023-07-24T06:27:47;18.10;83.80
48575;DHT22;34352;51.084;3.712;2023-07-24T06:30:14;18.20;82.40
48575;DHT22;34352;51.084;3.712;2023-07-24T06:32:42;18.30;81.10
48575;DHT22;34352;51.084;3.712;2023-07-24T06:35:08;18.40;81.20
48575;DHT22;34352;51.084;3.712;2023-07-24T06:37:34;18.50;79.90
48575;DHT22;34352;51.084;3.712;2023-07-24T06:40:01;18.60;78.90
48575;DHT22;34352;51.084;3.712;2023-07-24T06:42:26;18.50;76.80
48575;DHT22;34352;51.084;3.712;2023-07-24T06:44:52;18.40;77.80
48575;DHT22;34352;51.084;3.712;2023-07-24T06:47:19;18.40;78.00
48575;DHT22;34352;51.084;3.712;2023-07-24T06:49:45;18.40;76.30
48575;DHT22;34352;51.084;3.712;2023-07-24T06:52:13;18.20;79.60
48575;DHT22;34352;51.084;3.712;2023-07-24T06:54:41;18.10;81.50
48575;DHT22;34352;51.084;3.712;2023-07-24T06:57:08;18.00;80.60
48575;DHT22;34352;51.084;3.712;2023-07-24T06:59:34;17.90;82.40
48575;DHT22;34352;51.084;3.712;2023-07-24T07:02:02;17.90;82.10
48575;DHT22;34352;51.084;3.712;2023-07-24T07:04:29;17.80;83.20
48575;DHT22;34352;51.084;3.712;2023-07-24T07:06:55;17.80;84.50
48575;DHT22;34352;51.084;3.712;2023-07-24T07:09:22;17.80;84.90
48575;DHT22;34352;51.084;3.712;2023-07-24T07:11:47;17.70;86.10
48575;DHT22;34352;51.084;3.712;2023-07-24T07:14:13;17.60;86.50
48575;DHT22;34352;51.084;3.712;2023-07-24T07:16:39;17.60;87.30
48575;DHT22;34352;51.084;3.712;2023-07-24T07:19:04;17.50;88.50
48575;DHT22;34352;51.084;3.712;2023-07-24T07:21:30;17.60;88.60
48575;DHT22;34352;51.084;3.712;2023-07-24T07:23:56;17.50;89.50
48575;DHT22;34352;51.084;3.712;2023-07-24T07:26:21;17.50;88.70
48575;DHT22;34352;51.084;3.712;2023-07-24T07:28:48;17.60;88.60
48575;DHT22;34352;51.084;3.712;2023-07-24T07:31:15;17.80;87.40
48575;DHT22;34352;51.084;3.712;2023-07-24T07:33:43;17.90;86.00
48575;DHT22;34352;51.084;3.712;2023-07-24T07:36:09;18.00;83.70
48575;DHT22;34352;51.084;3.712;2023-07-24T07:38:35;18.10;83.80
48575;DHT22;34352;51.084;3.712;2023-07-24T07:41:06;18.20;84.70
48575;DHT22;34352;51.084;3.712;2023-07-24T07:43:31;18.20;85.20
48575;DHT22;34352;51.084;3.712;2023-07-24T07:45:58;18.40;84.90
48575;DHT22;34352;51.084;3.712;2023-07-24T07:48:25;18.70;83.80
48575;DHT22;34352;51.084;3.712;2023-07-24T07:50:52;18.90;76.10
48575;DHT22;34352;51.084;3.712;2023-07-24T07:53:19;19.10;72.20
48575;DHT22;34352;51.084;3.712;2023-07-24T07:55:44;19.30;74.30
48575;DHT22;34352;51.084;3.712;2023-07-24T07:58:10;19.50;71.60
48575;DHT22;34352;51.084;3.712;2023-07-24T08:00:36;19.70;69.00
48575;DHT22;34352;51.084;3.712;2023-07-24T08:03:03;19.90;63.10
48575;DHT22;34352;51.084;3.712;2023-07-24T08:05:29;19.90;58.20
48575;DHT22;34352;51.084;3.712;2023-07-24T08:07:56;19.90;56.30
48575;DHT22;34352;51.084;3.712;2023-07-24T08:10:21;19.80;54.40
48575;DHT22;34352;51.084;3.712;2023-07-24T08:12:48;19.70;57.20
48575;DHT22;34352;51.084;3.712;2023-07-24T08:15:15;19.70;56.40
48575;DHT22;34352;51.084;3.712;2023-07-24T08:17:41;19.60;55.40
48575;DHT22;34352;51.084;3.712;2023-07-24T08:20:08;19.30;57.70
48575;DHT22;34352;51.084;3.712;2023-07-24T08:22:34;19.30;59.90
48575;DHT22;34352;51.084;3.712;2023-07-24T08:24:59;19.20;63.30
48575;DHT22;34352;51.084;3.712;2023-07-24T08:27:26;19.20;66.60
48575;DHT22;34352;51.084;3.712;2023-07-24T08:29:52;19.30;64.60
48575;DHT22;34352;51.084;3.712;2023-07-24T08:32:18;19.50;66.80
48575;DHT22;34352;51.084;3.712;2023-07-24T08:34:45;19.80;58.10
48575;DHT22;34352;51.084;3.712;2023-07-24T08:37:12;20.30;53.70
48575;DHT22;34352;51.084;3.712;2023-07-24T08:39:38;20.50;46.30
48575;DHT22;34352;51.084;3.712;2023-07-24T08:42:13;20.70;39.20
48575;DHT22;34352;51.084;3.712;2023-07-24T08:44:42;21.10;30.30
48575;DHT22;34352;51.084;3.712;2023-07-24T08:47:10;21.70;28.30
48575;DHT22;34352;51.084;3.712;2023-07-24T08:49:41;21.90;19.70
48575;DHT22;34352;51.084;3.712;2023-07-24T08:52:08;21.70;10.50
48575;DHT22;34352;51.084;3.712;2023-07-24T08:54:36;21.60;23.10
48575;DHT22;34352;51.084;3.712;2023-07-24T08:57:06;21.90;21.50
48575;DHT22;34352;51.084;3.712;2023-07-24T08:59:31;22.00;7.90
48575;DHT22;34352;51.084;3.712;2023-07-24T09:01:57;22.40;12.80
48575;DHT22;34352;51.084;3.712;2023-07-24T09:04:25;23.20;1.00
48575;DHT22;34352;51.084;3.712;2023-07-24T09:06:53;24.10;1.00
48575;DHT22;34352;51.084;3.712;2023-07-24T09:09:29;24.80;1.00
48575;DHT22;34352;51.084;3.712;2023-07-24T09:12:01;25.80;1.00
48575;DHT22;34352;51.084;3.712;2023-07-24T09:14:46;26.40;99.90
48575;DHT22;34352;51.084;3.712;2023-07-24T09:17:12;25.80;99.90
48575;DHT22;34352;51.084;3.712;2023-07-24T09:19:38;25.50;99.90
48575;DHT22;34352;51.084;3.712;2023-07-24T09:22:14;25.80;99.90
48575;DHT22;34352;51.084;3.712;2023-07-24T09:24:51;26.30;99.90
48575;DHT22;34352;51.084;3.712;2023-07-24T09:27:17;26.20;99.90
48575;DHT22;34352;51.084;3.712;2023-07-24T09:29:44;26.30;99.90
48575;DHT22;34352;51.084;3.712;2023-07-24T09:32:20;26.80;99.90
48575;DHT22;34352;51.084;3.712;2023-07-24T09:34:48;26.10;99.90
48575;DHT22;34352;51.084;3.712;2023-07-24T09:37:42;25.30;99.90
48575;DHT22;34352;51.084;3.712;2023-07-24T09:40:09;24.40;99.90
48575;DHT22;34352;51.084;3.712;2023-07-24T09:42:36;24.00;99.90
48575;DHT22;34352;51.084;3.712;2023-07-24T09:45:03;23.80;99.90
48575;DHT22;34352;51.084;3.712;2023-07-24T09:47:30;23.90;99.90
48575;DHT22;34352;51.084;3.712;2023-07-24T09:49:56;23.90;99.90
48575;DHT22;34352;51.084;3.712;2023-07-24T09:52:24;23.80;99.90
48575;DHT22;34352;51.084;3.712;2023-07-24T09:55:13;23.60;99.90
48575;DHT22;34352;51.084;3.712;2023-07-24T09:57:41;23.50;99.90
48575;DHT22;34352;51.084;3.712;2023-07-24T10:00:09;23.20;99.90
48575;DHT22;34352;51.084;3.712;2023-07-24T10:02:37;23.20;99.90
48575;DHT22;34352;51.084;3.712;2023-07-24T10:05:03;23.10;99.90
48575;DHT22;34352;51.084;3.712;2023-07-24T10:07:29;22.90;99.90
48575;DHT22;34352;51.084;3.712;2023-07-24T10:09:55;22.60;99.90
48575;DHT22;34352;51.084;3.712;2023-07-24T10:12:22;22.50;99.90
48575;DHT22;34352;51.084;3.712;2023-07-24T10:14:49;22.50;99.90
48575;DHT22;34352;51.084;3.712;2023-07-24T10:17:34;22.70;99.90
48575;DHT22;34352;51.084;3.712;2023-07-24T10:20:05;23.30;99.90
48575;DHT22;34352;51.084;3.712;2023-07-24T10:22:31;23.60;99.90
48575;DHT22;34352;51.084;3.712;2023-07-24T10:24:56;23.40;99.90
48575;DHT22;34352;51.084;3.712;2023-07-24T10:27:26;23.30;99.90
48575;DHT22;34352;51.084;3.712;2023-07-24T10:30:04;23.30;99.90
48575;DHT22;34352;51.084;3.712;2023-07-24T10:32:32;23.30;99.90
48575;DHT22;34352;51.084;3.712;2023-07-24T10:35:05;23.30;99.90
48575;DHT22;34352;51.084;3.712;2023-07-24T10:37:33;23.40;99.90
48575;DHT22;34352;51.084;3.712;2023-07-24T10:40:00;23.50;99.90
48575;DHT22;34352;51.084;3.712;2023-07-24T10:42:25;23.40;99.90
48575;DHT22;34352;51.084;3.712;2023-07-24T10:45:08;23.20;99.90
48575;DHT22;34352;51.084;3.712;2023-07-24T10:47:34;23.10;99.90
48575;DHT22;34352;51.084;3.712;2023-07-24T10:50:00;23.10;99.90
48575;DHT22;34352;51.084;3.712;2023-07-24T10:52:32;23.10;99.90
48575;DHT22;34352;51.084;3.712;2023-07-24T10:55:03;23.30;99.90
48575;DHT22;34352;51.084;3.712;2023-07-24T10:57:29;23.30;99.90
48575;DHT22;34352;51.084;3.712;2023-07-24T10:59:55;23.00;99.90
48575;DHT22;34352;51.084;3.712;2023-07-24T11:02:21;22.90;99.90
48575;DHT22;34352;51.084;3.712;2023-07-24T11:04:47;23.00;99.90
48575;DHT22;34352;51.084;3.712;2023-07-24T11:07:13;23.30;99.90
48575;DHT22;34352;51.084;3.712;2023-07-24T11:09:40;23.60;99.90
48575;DHT22;34352;51.084;3.712;2023-07-24T11:12:11;24.30;99.90
48575;DHT22;34352;51.084;3.712;2023-07-24T11:14:46;24.50;99.90
48575;DHT22;34352;51.084;3.712;2023-07-24T11:17:12;24.40;99.90
48575;DHT22;34352;51.084;3.712;2023-07-24T11:19:39;24.50;99.90
48575;DHT22;34352;51.084;3.712;2023-07-24T11:22:05;24.50;99.90
48575;DHT22;34352;51.084;3.712;2023-07-24T11:24:31;24.20;99.90
48575;DHT22;34352;51.084;3.712;2023-07-24T11:26:57;23.90;99.90
48575;DHT22;34352;51.084;3.712;2023-07-24T11:29:23;23.70;99.90
48575;DHT22;34352;51.084;3.712;2023-07-24T11:31:55;23.50;99.90
48575;DHT22;34352;51.084;3.712;2023-07-24T11:34:22;23.30;99.90
48575;DHT22;34352;51.084;3.712;2023-07-24T11:36:49;23.20;99.90
48575;DHT22;34352;51.084;3.712;2023-07-24T11:39:24;23.00;99.90
48575;DHT22;34352;51.084;3.712;2023-07-24T11:41:50;22.60;99.90
48575;DHT22;34352;51.084;3.712;2023-07-24T11:44:16;22.20;99.90
48575;DHT22;34352;51.084;3.712;2023-07-24T11:46:49;21.80;99.90
48575;DHT22;34352;51.084;3.712;2023-07-24T11:49:15;21.40;99.90
48575;DHT22;34352;51.084;3.712;2023-07-24T11:51:41;21.30;1.00
48575;DHT22;34352;51.084;3.712;2023-07-24T11:54:07;21.40;1.00
48575;DHT22;34352;51.084;3.712;2023-07-24T11:56:33;22.00;99.90
48575;DHT22;34352;51.084;3.712;2023-07-24T11:59:09;22.50;99.90
48575;DHT22;34352;51.084;3.712;2023-07-24T12:01:35;22.80;99.90
48575;DHT22;34352;51.084;3.712;2023-07-24T12:04:01;22.80;99.90
48575;DHT22;34352;51.084;3.712;2023-07-24T12:06:30;22.60;99.90
48575;DHT22;34352;51.084;3.712;2023-07-24T12:09:02;22.20;99.90
48575;DHT22;34352;51.084;3.712;2023-07-24T12:11:30;21.90;99.90
48575;DHT22;34352;51.084;3.712;2023-07-24T12:13:57;21.70;99.90
48575;DHT22;34352;51.084;3.712;2023-07-24T12:16:22;21.70;1.00
48575;DHT22;34352;51.084;3.712;2023-07-24T12:18:48;21.60;1.00
48575;DHT22;34352;51.084;3.712;2023-07-24T12:21:14;21.70;1.00
48575;DHT22;34352;51.084;3.712;2023-07-24T12:23:39;21.80;1.00
48575;DHT22;34352;51.084;3.712;2023-07-24T12:26:05;22.00;1.00
48575;DHT22;34352;51.084;3.712;2023-07-24T12:28:31;22.20;1.00
48575;DHT22;34352;51.084;3.712;2023-07-24T12:30:57;22.40;1.00
48575;DHT22;34352;51.084;3.712;2023-07-24T12:33:22;22.50;1.00
48575;DHT22;34352;51.084;3.712;2023-07-24T12:35:50;22.60;1.00
48575;DHT22;34352;51.084;3.712;2023-07-24T12:38:15;22.50;1.00
48575;DHT22;34352;51.084;3.712;2023-07-24T12:40:41;22.40;1.00
48575;DHT22;34352;51.084;3.712;2023-07-24T12:43:07;22.00;1.00
48575;DHT22;34352;51.084;3.712;2023-07-24T12:45:32;21.50;1.00
48575;DHT22;34352;51.084;3.712;2023-07-24T12:47:58;21.50;1.00
48575;DHT22;34352;51.084;3.712;2023-07-24T12:50:24;21.50;1.00
48575;DHT22;34352;51.084;3.712;2023-07-24T12:52:50;21.50;1.00
48575;DHT22;34352;51.084;3.712;2023-07-24T12:55:15;21.20;1.00
48575;DHT22;34352;51.084;3.712;2023-07-24T12:57:41;20.90;1.00
48575;DHT22;34352;51.084;3.712;2023-07-24T13:00:07;20.60;1.00
48575;DHT22;34352;51.084;3.712;2023-07-24T13:02:34;20.20;1.00
48575;DHT22;34352;51.084;3.712;2023-07-24T13:05:00;19.90;1.00
48575;DHT22;34352;51.084;3.712;2023-07-24T13:07:26;19.60;8.00
48575;DHT22;34352;51.084;3.712;2023-07-24T13:09:52;19.30;13.60
48575;DHT22;34352;51.084;3.712;2023-07-24T13:12:17;18.90;25.80
48575;DHT22;34352;51.084;3.712;2023-07-24T13:14:43;18.70;35.70
48575;DHT22;34352;51.084;3.712;2023-07-24T13:17:09;18.60;43.10
48575;DHT22;34352;51.084;3.712;2023-07-24T13:19:35;18.60;47.10
48575;DHT22;34352;51.084;3.712;2023-07-24T13:22:02;18.40;48.00
48575;DHT22;34352;51.084;3.712;2023-07-24T13:24:28;18.30;51.40
48575;DHT22;34352;51.084;3.712;2023-07-24T13:26:54;18.30;54.70
48575;DHT22;34352;51.084;3.712;2023-07-24T13:29:20;18.20;53.80
48575;DHT22;34352;51.084;3.712;2023-07-24T13:31:45;18.20;56.70
48575;DHT22;34352;51.084;3.712;2023-07-24T13:34:11;18.30;57.30
48575;DHT22;34352;51.084;3.712;2023-07-24T13:36:37;18.40;59.00
48575;DHT22;34352;51.084;3.712;2023-07-24T13:39:03;18.70;55.60
48575;DHT22;34352;51.084;3.712;2023-07-24T13:41:29;18.80;49.40
48575;DHT22;34352;51.084;3.712;2023-07-24T13:43:55;19.00;49.40
48575;DHT22;34352;51.084;3.712;2023-07-24T13:46:22;19.10;43.50
48575;DHT22;34352;51.084;3.712;2023-07-24T13:48:48;19.20;40.90
48575;DHT22;34352;51.084;3.712;2023-07-24T13:51:13;19.40;50.80
48575;DHT22;34352;51.084;3.712;2023-07-24T13:53:39;20.50;61.80
48575;DHT22;34352;51.084;3.712;2023-07-24T13:56:05;20.90;8.10
48575;DHT22;34352;51.084;3.712;2023-07-24T13:58:31;20.90;1.00
48575;DHT22;34352;51.084;3.712;2023-07-24T14:00:57;21.00;1.00
48575;DHT22;34352;51.084;3.712;2023-07-24T14:03:23;21.00;1.00
48575;DHT22;34352;51.084;3.712;2023-07-24T14:05:51;21.20;1.00
48575;DHT22;34352;51.084;3.712;2023-07-24T14:08:17;21.40;1.00
48575;DHT22;34352;51.084;3.712;2023-07-24T14:10:42;21.80;1.00
48575;DHT22;34352;51.084;3.712;2023-07-24T14:13:08;22.40;1.00
48575;DHT22;34352;51.084;3.712;2023-07-24T14:15:34;23.10;1.00
48575;DHT22;34352;51.084;3.712;2023-07-24T14:17:59;23.60;1.00
48575;DHT22;34352;51.084;3.712;2023-07-24T14:20:25;23.70;1.00
48575;DHT22;34352;51.084;3.712;2023-07-24T14:22:51;23.50;1.00
48575;DHT22;34352;51.084;3.712;2023-07-24T14:25:18;23.20;1.00
48575;DHT22;34352;51.084;3.712;2023-07-24T14:27:43;23.10;1.00
48575;DHT22;34352;51.084;3.712;2023-07-24T14:30:11;23.20;1.00
48575;DHT22;34352;51.084;3.712;2023-07-24T14:32:37;23.00;1.00
48575;DHT22;34352;51.084;3.712;2023-07-24T14:35:03;22.60;1.00
48575;DHT22;34352;51.084;3.712;2023-07-24T14:37:28;22.40;1.00
48575;DHT22;34352;51.084;3.712;2023-07-24T14:39:54;22.50;1.00
48575;DHT22;34352;51.084;3.712;2023-07-24T14:42:20;22.70;1.00
48575;DHT22;34352;51.084;3.712;2023-07-24T14:44:45;22.80;1.00
48575;DHT22;34352;51.084;3.712;2023-07-24T14:47:12;22.70;1.00
48575;DHT22;34352;51.084;3.712;2023-07-24T14:49:40;22.40;1.00
48575;DHT22;34352;51.084;3.712;2023-07-24T14:52:06;22.20;1.00
48575;DHT22;34352;51.084;3.712;2023-07-24T14:54:31;22.10;1.00
48575;DHT22;34352;51.084;3.712;2023-07-24T14:56:58;22.00;1.00
48575;DHT22;34352;51.084;3.712;2023-07-24T14:59:24;21.90;1.00
48575;DHT22;34352;51.084;3.712;2023-07-24T15:01:50;21.70;1.00
48575;DHT22;34352;51.084;3.712;2023-07-24T15:04:16;22.10;1.00
48575;DHT22;34352;51.084;3.712;2023-07-24T15:06:42;22.40;1.00
48575;DHT22;34352;51.084;3.712;2023-07-24T15:09:07;22.70;1.00
48575;DHT22;34352;51.084;3.712;2023-07-24T15:11:33;22.90;1.00
48575;DHT22;34352;51.084;3.712;2023-07-24T15:13:59;23.00;1.00
48575;DHT22;34352;51.084;3.712;2023-07-24T15:16:24;23.00;1.00
48575;DHT22;34352;51.084;3.712;2023-07-24T15:18:50;23.10;1.00
48575;DHT22;34352;51.084;3.712;2023-07-24T15:21:16;23.20;1.00
48575;DHT22;34352;51.084;3.712;2023-07-24T15:23:41;23.40;1.00
48575;DHT22;34352;51.084;3.712;2023-07-24T15:26:07;23.50;1.00
48575;DHT22;34352;51.084;3.712;2023-07-24T15:28:33;23.70;1.00
48575;DHT22;34352;51.084;3.712;2023-07-24T15:30:59;23.70;1.00
48575;DHT22;34352;51.084;3.712;2023-07-24T15:33:24;23.40;1.00
48575;DHT22;34352;51.084;3.712;2023-07-24T15:35:51;23.50;1.00
48575;DHT22;34352;51.084;3.712;2023-07-24T15:38:17;23.50;1.00
48575;DHT22;34352;51.084;3.712;2023-07-24T15:40:43;23.30;1.00